sensor_id;sensor_type;location;lat;lon;timestamp;pressure;altitude;pressure_sealevel;temperature
78369;BMP280;71113;43.092;-89.268;2024-01-16T00:01:56;98521.03;;;19.64
78369;BMP280;71113;43.092;-89.268;2024-01-16T00:04:23;98523.84;;;19.59
78369;BMP280;71113;43.092;-89.268;2024-01-16T00:06:52;98522.91;;;19.55
78369;BMP280;71113;43.092;-89.268;2024-01-16T00:09:18;98531.47;;;19.43
78369;BMP280;71113;43.092;-89.268;2024-01-16T00:11:44;98528.84;;;19.43
78369;BMP280;71113;43.092;-89.268;2024-01-16T00:14:10;98536.16;;;19.37
78369;BMP280;71113;43.092;-89.268;2024-01-16T00:16:45;98534.31;;;19.38
78369;BMP280;71113;43.092;-89.268;2024-01-16T00:19:12;98523.88;;;19.41
78369;BMP280;71113;43.092;-89.268;2024-01-16T00:21:40;98517.03;;;19.40
78369;BMP280;71113;43.092;-89.268;2024-01-16T00:24:06;98506.09;;;19.50
78369;BMP280;71113;43.092;-89.268;2024-01-16T00:26:34;98495.03;;;19.57
78369;BMP280;71113;43.092;-89.268;2024-01-16T00:29:00;98488.19;;;19.56
78369;BMP280;71113;43.092;-89.268;2024-01-16T00:31:26;98502.19;;;19.65
78369;BMP280;71113;43.092;-89.268;2024-01-16T00:33:52;98495.03;;;19.57
78369;BMP280;71113;43.092;-89.268;2024-01-16T00:36:18;98502.03;;;19.53
78369;BMP280;71113;43.092;-89.268;2024-01-16T00:38:44;98509.53;;;19.51
78369;BMP280;71113;43.092;-89.268;2024-01-16T00:41:12;98506.75;;;19.47
78369;BMP280;71113;43.092;-89.268;2024-01-16T00:43:43;98527.00;;;19.43
78369;BMP280;71113;43.092;-89.268;2024-01-16T00:46:09;98540.38;;;19.47
78369;BMP280;71113;43.092;-89.268;2024-01-16T00:48:34;98546.72;;;19.55
78369;BMP280;71113;43.092;-89.268;2024-01-16T00:51:00;98552.16;;;19.58
78369;BMP280;71113;43.092;-89.268;2024-01-16T00:53:27;98538.91;;;19.67
78369;BMP280;71113;43.092;-89.268;2024-01-16T00:55:53;98542.66;;;19.74
78369;BMP280;71113;43.092;-89.268;2024-01-16T00:58:23;98535.97;;;19.68
78369;BMP280;71113;43.092;-89.268;2024-01-16T01:00:49;98527.28;;;19.59
78369;BMP280;71113;43.092;-89.268;2024-01-16T01:03:15;98528.81;;;19.60
78369;BMP280;71113;43.092;-89.268;2024-01-16T01:05:41;98526.78;;;19.57
78369;BMP280;71113;43.092;-89.268;2024-01-16T01:08:07;98524.75;;;19.54
78369;BMP280;71113;43.092;-89.268;2024-01-16T01:10:34;98519.03;;;19.52
78369;BMP280;71113;43.092;-89.268;2024-01-16T01:13:00;98511.69;;;19.49
78369;BMP280;71113;43.092;-89.268;2024-01-16T01:15:26;98507.97;;;19.59
78369;BMP280;71113;43.092;-89.268;2024-01-16T01:17:52;98500.63;;;19.64
78369;BMP280;71113;43.092;-89.268;2024-01-16T01:20:20;98504.50;;;19.67
78369;BMP280;71113;43.092;-89.268;2024-01-16T01:22:46;98509.94;;;19.79
78369;BMP280;71113;43.092;-89.268;2024-01-16T01:25:13;98508.69;;;19.76
78369;BMP280;71113;43.092;-89.268;2024-01-16T01:27:40;98517.44;;;19.68
78369;BMP280;71113;43.092;-89.268;2024-01-16T01:30:07;98512.44;;;19.67
78369;BMP280;71113;43.092;-89.268;2024-01-16T01:32:37;98515.41;;;19.65
78369;BMP280;71113;43.092;-89.268;2024-01-16T01:35:05;98509.19;;;19.61
78369;BMP280;71113;43.092;-89.268;2024-01-16T01:37:32;98517.31;;;19.56
78369;BMP280;71113;43.092;-89.268;2024-01-16T01:39:58;98504.69;;;19.53
78369;BMP280;71113;43.092;-89.268;2024-01-16T01:42:25;98497.09;;;19.52
78369;BMP280;71113;43.092;-89.268;2024-01-16T01:44:52;98506.25;;;19.54
78369;BMP280;71113;43.092;-89.268;2024-01-16T01:47:18;98496.72;;;19.62
78369;BMP280;71113;43.092;-89.268;2024-01-16T01:49:45;98488.50;;;19.63
78369;BMP280;71113;43.092;-89.268;2024-01-16T01:52:12;98485.03;;;19.71
78369;BMP280;71113;43.092;-89.268;2024-01-16T01:54:40;98481.09;;;19.77
78369;BMP280;71113;43.092;-89.268;2024-01-16T01:57:08;98483.94;;;19.72
78369;BMP280;71113;43.092;-89.268;2024-01-16T01:59:36;98484.56;;;19.69
78369;BMP280;71113;43.092;-89.268;2024-01-16T02:02:03;98487.22;;;19.69
78369;BMP280;71113;43.092;-89.268;2024-01-16T02:04:31;98489.72;;;19.66
78369;BMP280;71113;43.092;-89.268;2024-01-16T02:06:58;98504.38;;;19.63
78369;BMP280;71113;43.092;-89.268;2024-01-16T02:09:25;98486.00;;;19.58
78369;BMP280;71113;43.092;-89.268;2024-01-16T02:11:57;98474.47;;;19.54
78369;BMP280;71113;43.092;-89.268;2024-01-16T02:14:24;98482.91;;;19.56
78369;BMP280;71113;43.092;-89.268;2024-01-16T02:16:53;98482.75;;;19.61
78369;BMP280;71113;43.092;-89.268;2024-01-16T02:19:19;98492.69;;;19.64
78369;BMP280;71113;43.092;-89.268;2024-01-16T02:21:53;98493.31;;;19.61
78369;BMP280;71113;43.092;-89.268;2024-01-16T02:24:21;98487.72;;;19.54
78369;BMP280;71113;43.092;-89.268;2024-01-16T02:26:47;98479.00;;;19.54
78369;BMP280;71113;43.092;-89.268;2024-01-16T02:29:13;98468.28;;;19.50
78369;BMP280;71113;43.092;-89.268;2024-01-16T02:31:42;98469.72;;;19.47
78369;BMP280;71113;43.092;-89.268;2024-01-16T02:34:08;98470.31;;;19.44
78369;BMP280;71113;43.092;-89.268;2024-01-16T02:36:34;98477.34;;;19.40
78369;BMP280;71113;43.092;-89.268;2024-01-16T02:39:00;98468.19;;;19.29
78369;BMP280;71113;43.092;-89.268;2024-01-16T02:41:27;98465.38;;;19.34
78369;BMP280;71113;43.092;-89.268;2024-01-16T02:43:53;98467.09;;;19.30
78369;BMP280;71113;43.092;-89.268;2024-01-16T02:46:20;98472.84;;;19.24
78369;BMP280;71113;43.092;-89.268;2024-01-16T02:48:46;98459.34;;;19.16
78369;BMP280;71113;43.092;-89.268;2024-01-16T02:51:13;98458.56;;;19.16
78369;BMP280;71113;43.092;-89.268;2024-01-16T02:53:41;98462.13;;;19.11
78369;BMP280;71113;43.092;-89.268;2024-01-16T02:56:08;98468.03;;;19.08
78369;BMP280;71113;43.092;-89.268;2024-01-16T02:58:35;98471.16;;;19.10
78369;BMP280;71113;43.092;-89.268;2024-01-16T03:01:01;98453.25;;;19.16
78369;BMP280;71113;43.092;-89.268;2024-01-16T03:03:28;98451.22;;;19.22
78369;BMP280;71113;43.092;-89.268;2024-01-16T03:05:54;98464.91;;;19.24
78369;BMP280;71113;43.092;-89.268;2024-01-16T03:08:22;98463.03;;;19.33
78369;BMP280;71113;43.092;-89.268;2024-01-16T03:10:48;98459.75;;;19.27
78369;BMP280;71113;43.092;-89.268;2024-01-16T03:13:15;98453.28;;;19.25
78369;BMP280;71113;43.092;-89.268;2024-01-16T03:15:41;98451.69;;;19.24
78369;BMP280;71113;43.092;-89.268;2024-01-16T03:18:07;98455.41;;;19.23
78369;BMP280;71113;43.092;-89.268;2024-01-16T03:20:33;98456.50;;;19.22
78369;BMP280;71113;43.092;-89.268;2024-01-16T03:22:59;98444.41;;;19.21
78369;BMP280;71113;43.092;-89.268;2024-01-16T03:25:25;98434.63;;;19.21
78369;BMP280;71113;43.092;-89.268;2024-01-16T03:27:51;98434.13;;;19.19
78369;BMP280;71113;43.092;-89.268;2024-01-16T03:30:18;98433.66;;;19.17
78369;BMP280;71113;43.092;-89.268;2024-01-16T03:32:44;98449.06;;;19.15
78369;BMP280;71113;43.092;-89.268;2024-01-16T03:35:10;98432.75;;;19.13
78369;BMP280;71113;43.092;-89.268;2024-01-16T03:37:37;98413.00;;;19.10
78369;BMP280;71113;43.092;-89.268;2024-01-16T03:40:05;98403.78;;;19.08
78369;BMP280;71113;43.092;-89.268;2024-01-16T03:42:31;98402.28;;;18.98
78369;BMP280;71113;43.092;-89.268;2024-01-16T03:44:57;98397.44;;;19.00
78369;BMP280;71113;43.092;-89.268;2024-01-16T03:47:23;98393.41;;;18.94
78369;BMP280;71113;43.092;-89.268;2024-01-16T03:49:49;98379.75;;;18.83
78369;BMP280;71113;43.092;-89.268;2024-01-16T03:52:15;98378.66;;;18.84
78369;BMP280;71113;43.092;-89.268;2024-01-16T03:54:41;98373.38;;;18.84
78369;BMP280;71113;43.092;-89.268;2024-01-16T03:57:07;98379.59;;;18.80
78369;BMP280;71113;43.092;-89.268;2024-01-16T03:59:33;98373.06;;;18.77
78369;BMP280;71113;43.092;-89.268;2024-01-16T04:02:02;98362.50;;;18.77
78369;BMP280;71113;43.092;-89.268;2024-01-16T04:04:29;98370.59;;;18.72
78369;BMP280;71113;43.092;-89.268;2024-01-16T04:06:55;98364.06;;;18.70
78369;BMP280;71113;43.092;-89.268;2024-01-16T04:09:21;98366.09;;;18.64
78369;BMP280;71113;43.092;-89.268;2024-01-16T04:11:50;98369.66;;;18.68
78369;BMP280;71113;43.092;-89.268;2024-01-16T04:14:16;98362.81;;;18.67
78369;BMP280;71113;43.092;-89.268;2024-01-16T04:16:42;98360.19;;;18.67
78369;BMP280;71113;43.092;-89.268;2024-01-16T04:19:08;98370.28;;;18.65
78369;BMP280;71113;43.092;-89.268;2024-01-16T04:21:35;98379.63;;;18.63
78369;BMP280;71113;43.092;-89.268;2024-01-16T04:24:01;98391.44;;;18.56
78369;BMP280;71113;43.092;-89.268;2024-01-16T04:26:27;98390.97;;;18.54
78369;BMP280;71113;43.092;-89.268;2024-01-16T04:28:53;98390.16;;;18.54
78369;BMP280;71113;43.092;-89.268;2024-01-16T04:31:19;98385.69;;;18.54
78369;BMP280;71113;43.092;-89.268;2024-01-16T04:33:48;98389.91;;;18.47
78369;BMP280;71113;43.092;-89.268;2024-01-16T04:36:13;98398.09;;;18.45
78369;BMP280;71113;43.092;-89.268;2024-01-16T04:38:39;98400.59;;;18.42
78369;BMP280;71113;43.092;-89.268;2024-01-16T04:41:05;98396.56;;;18.44
78369;BMP280;71113;43.092;-89.268;2024-01-16T04:43:31;98405.88;;;18.50
78369;BMP280;71113;43.092;-89.268;2024-01-16T04:45:57;98402.47;;;18.59
78369;BMP280;71113;43.092;-89.268;2024-01-16T04:48:23;98404.94;;;18.64
78369;BMP280;71113;43.092;-89.268;2024-01-16T04:50:49;98404.50;;;18.70
78369;BMP280;71113;43.092;-89.268;2024-01-16T04:53:15;98392.22;;;18.74
78369;BMP280;71113;43.092;-89.268;2024-01-16T04:55:41;98381.94;;;18.64
78369;BMP280;71113;43.092;-89.268;2024-01-16T04:58:07;98376.50;;;18.61
78369;BMP280;71113;43.092;-89.268;2024-01-16T05:00:33;98370.78;;;18.59
78369;BMP280;71113;43.092;-89.268;2024-01-16T05:02:59;98365.47;;;18.59
78369;BMP280;71113;43.092;-89.268;2024-01-16T05:05:25;98368.75;;;18.47
78369;BMP280;71113;43.092;-89.268;2024-01-16T05:07:51;98356.94;;;18.44
78369;BMP280;71113;43.092;-89.268;2024-01-16T05:10:17;98351.19;;;18.42
78369;BMP280;71113;43.092;-89.268;2024-01-16T05:12:42;98342.31;;;18.38
78369;BMP280;71113;43.092;-89.268;2024-01-16T05:15:09;98341.72;;;18.33
78369;BMP280;71113;43.092;-89.268;2024-01-16T05:17:36;98340.00;;;18.37
78369;BMP280;71113;43.092;-89.268;2024-01-16T05:20:03;98337.22;;;18.33
78369;BMP280;71113;43.092;-89.268;2024-01-16T05:22:30;98325.09;;;18.32
78369;BMP280;71113;43.092;-89.268;2024-01-16T05:24:55;98341.53;;;18.29
78369;BMP280;71113;43.092;-89.268;2024-01-16T05:27:21;98330.81;;;18.34
78369;BMP280;71113;43.092;-89.268;2024-01-16T05:29:47;98327.09;;;18.44
78369;BMP280;71113;43.092;-89.268;2024-01-16T05:32:13;98315.28;;;18.50
78369;BMP280;71113;43.092;-89.268;2024-01-16T05:34:39;98314.97;;;18.60
78369;BMP280;71113;43.092;-89.268;2024-01-16T05:37:05;98304.56;;;18.64
78369;BMP280;71113;43.092;-89.268;2024-01-16T05:39:31;98298.94;;;18.65
78369;BMP280;71113;43.092;-89.268;2024-01-16T05:41:57;98301.63;;;18.56
78369;BMP280;71113;43.092;-89.268;2024-01-16T05:44:23;98296.50;;;18.51
78369;BMP280;71113;43.092;-89.268;2024-01-16T05:46:49;98300.19;;;18.50
78369;BMP280;71113;43.092;-89.268;2024-01-16T05:49:15;98294.91;;;18.50
78369;BMP280;71113;43.092;-89.268;2024-01-16T05:51:41;98291.66;;;18.45
78369;BMP280;71113;43.092;-89.268;2024-01-16T05:54:06;98295.25;;;18.40
78369;BMP280;71113;43.092;-89.268;2024-01-16T05:56:32;98287.50;;;18.35
78369;BMP280;71113;43.092;-89.268;2024-01-16T05:58:59;98280.81;;;18.38
78369;BMP280;71113;43.092;-89.268;2024-01-16T06:01:25;98285.47;;;18.41
78369;BMP280;71113;43.092;-89.268;2024-01-16T06:03:52;98274.28;;;18.35
78369;BMP280;71113;43.092;-89.268;2024-01-16T06:06:18;98267.44;;;18.34
78369;BMP280;71113;43.092;-89.268;2024-01-16T06:08:45;98254.09;;;18.31
78369;BMP280;71113;43.092;-89.268;2024-01-16T06:11:11;98248.50;;;18.41
78369;BMP280;71113;43.092;-89.268;2024-01-16T06:13:38;98242.75;;;18.47
78369;BMP280;71113;43.092;-89.268;2024-01-16T06:16:06;98256.25;;;18.54
78369;BMP280;71113;43.092;-89.268;2024-01-16T06:18:34;98260.72;;;18.63
78369;BMP280;71113;43.092;-89.268;2024-01-16T06:21:01;98252.34;;;18.61
78369;BMP280;71113;43.092;-89.268;2024-01-16T06:23:27;98252.03;;;18.53
78369;BMP280;71113;43.092;-89.268;2024-01-16T06:25:52;98256.25;;;18.46
78369;BMP280;71113;43.092;-89.268;2024-01-16T06:28:18;98266.66;;;18.42
78369;BMP280;71113;43.092;-89.268;2024-01-16T06:30:44;98256.84;;;18.43
78369;BMP280;71113;43.092;-89.268;2024-01-16T06:33:10;98257.19;;;18.41
78369;BMP280;71113;43.092;-89.268;2024-01-16T06:35:36;98257.97;;;18.42
78369;BMP280;71113;43.092;-89.268;2024-01-16T06:38:02;98258.28;;;18.40
78369;BMP280;71113;43.092;-89.268;2024-01-16T06:40:28;98257.03;;;18.38
78369;BMP280;71113;43.092;-89.268;2024-01-16T06:42:54;98263.72;;;18.35
78369;BMP280;71113;43.092;-89.268;2024-01-16T06:45:20;98268.22;;;18.35
78369;BMP280;71113;43.092;-89.268;2024-01-16T06:47:46;98260.44;;;18.30
78369;BMP280;71113;43.092;-89.268;2024-01-16T06:50:11;98259.50;;;18.34
78369;BMP280;71113;43.092;-89.268;2024-01-16T06:52:37;98260.94;;;18.40
78369;BMP280;71113;43.092;-89.268;2024-01-16T06:55:03;98256.72;;;18.48
78369;BMP280;71113;43.092;-89.268;2024-01-16T06:57:29;98259.03;;;18.49
78369;BMP280;71113;43.092;-89.268;2024-01-16T06:59:55;98269.28;;;18.60
78369;BMP280;71113;43.092;-89.268;2024-01-16T07:02:21;98265.72;;;18.55
78369;BMP280;71113;43.092;-89.268;2024-01-16T07:04:47;98256.88;;;18.51
78369;BMP280;71113;43.092;-89.268;2024-01-16T07:07:13;98261.53;;;18.46
78369;BMP280;71113;43.092;-89.268;2024-01-16T07:09:39;98261.38;;;18.42
78369;BMP280;71113;43.092;-89.268;2024-01-16T07:12:05;98261.22;;;18.39
78369;BMP280;71113;43.092;-89.268;2024-01-16T07:14:33;98254.41;;;18.38
78369;BMP280;71113;43.092;-89.268;2024-01-16T07:16:58;98256.72;;;18.39
78369;BMP280;71113;43.092;-89.268;2024-01-16T07:19:24;98255.81;;;18.35
78369;BMP280;71113;43.092;-89.268;2024-01-16T07:21:50;98249.56;;;18.31
78369;BMP280;71113;43.092;-89.268;2024-01-16T07:24:16;98252.53;;;18.30
78369;BMP280;71113;43.092;-89.268;2024-01-16T07:26:42;98240.75;;;18.27
78369;BMP280;71113;43.092;-89.268;2024-01-16T07:29:08;98243.06;;;18.37
78369;BMP280;71113;43.092;-89.268;2024-01-16T07:31:34;98239.16;;;18.43
78369;BMP280;71113;43.092;-89.268;2024-01-16T07:34:00;98245.81;;;18.49
78369;BMP280;71113;43.092;-89.268;2024-01-16T07:36:26;98243.03;;;18.54
78369;BMP280;71113;43.092;-89.268;2024-01-16T07:38:52;98239.91;;;18.61
78369;BMP280;71113;43.092;-89.268;2024-01-16T07:41:18;98235.22;;;18.67
78369;BMP280;71113;43.092;-89.268;2024-01-16T07:43:44;98241.44;;;18.62
78369;BMP280;71113;43.092;-89.268;2024-01-16T07:46:10;98228.88;;;18.50
78369;BMP280;71113;43.092;-89.268;2024-01-16T07:48:36;98235.13;;;18.46
78369;BMP280;71113;43.092;-89.268;2024-01-16T07:51:03;98237.75;;;18.46
78369;BMP280;71113;43.092;-89.268;2024-01-16T07:53:29;98241.16;;;18.46
78369;BMP280;71113;43.092;-89.268;2024-01-16T07:55:54;98247.09;;;18.43
78369;BMP280;71113;43.092;-89.268;2024-01-16T07:58:21;98242.72;;;18.39
78369;BMP280;71113;43.092;-89.268;2024-01-16T08:00:47;98239.03;;;18.40
78369;BMP280;71113;43.092;-89.268;2024-01-16T08:03:13;98230.63;;;18.38
78369;BMP280;71113;43.092;-89.268;2024-01-16T08:05:40;98235.75;;;18.34
78369;BMP280;71113;43.092;-89.268;2024-01-16T08:08:09;98237.31;;;18.35
78369;BMP280;71113;43.092;-89.268;2024-01-16T08:10:35;98239.81;;;18.32
78369;BMP280;71113;43.092;-89.268;2024-01-16T08:13:01;98242.91;;;18.34
78369;BMP280;71113;43.092;-89.268;2024-01-16T08:15:27;98248.00;;;18.39
78369;BMP280;71113;43.092;-89.268;2024-01-16T08:17:52;98257.03;;;18.46
78369;BMP280;71113;43.092;-89.268;2024-01-16T08:20:18;98265.22;;;18.53
78369;BMP280;71113;43.092;-89.268;2024-01-16T08:23:04;98259.63;;;18.64
78369;BMP280;71113;43.092;-89.268;2024-01-16T08:25:30;98261.50;;;18.63
78369;BMP280;71113;43.092;-89.268;2024-01-16T08:27:56;98267.88;;;18.71
78369;BMP280;71113;43.092;-89.268;2024-01-16T08:30:22;98262.13;;;18.60
78369;BMP280;71113;43.092;-89.268;2024-01-16T08:32:48;98272.38;;;18.53
78369;BMP280;71113;43.092;-89.268;2024-01-16T08:35:14;98264.16;;;18.46
78369;BMP280;71113;43.092;-89.268;2024-01-16T08:37:40;98265.75;;;18.47
78369;BMP280;71113;43.092;-89.268;2024-01-16T08:40:06;98267.59;;;18.46
78369;BMP280;71113;43.092;-89.268;2024-01-16T08:42:32;98275.06;;;18.44
78369;BMP280;71113;43.092;-89.268;2024-01-16T08:44:58;98281.88;;;18.45
78369;BMP280;71113;43.092;-89.268;2024-01-16T08:47:24;98273.50;;;18.43
78369;BMP280;71113;43.092;-89.268;2024-01-16T08:49:50;98273.34;;;18.40
78369;BMP280;71113;43.092;-89.268;2024-01-16T08:52:16;98276.28;;;18.38
78369;BMP280;71113;43.092;-89.268;2024-01-16T08:54:42;98268.69;;;18.37
78369;BMP280;71113;43.092;-89.268;2024-01-16T08:57:08;98259.84;;;18.33
78369;BMP280;71113;43.092;-89.268;2024-01-16T08:59:36;98265.72;;;18.38
78369;BMP280;71113;43.092;-89.268;2024-01-16T09:02:02;98255.31;;;18.42
78369;BMP280;71113;43.092;-89.268;2024-01-16T09:04:29;98243.81;;;18.46
78369;BMP280;71113;43.092;-89.268;2024-01-16T09:06:54;98246.13;;;18.56
78369;BMP280;71113;43.092;-89.268;2024-01-16T09:09:21;98252.66;;;18.59
78369;BMP280;71113;43.092;-89.268;2024-01-16T09:11:46;98253.88;;;18.62
78369;BMP280;71113;43.092;-89.268;2024-01-16T09:14:12;98255.72;;;18.70
78369;BMP280;71113;43.092;-89.268;2024-01-16T09:16:38;98255.94;;;18.56
78369;BMP280;71113;43.092;-89.268;2024-01-16T09:19:04;98250.34;;;18.49
78369;BMP280;71113;43.092;-89.268;2024-01-16T09:21:30;98253.00;;;18.40
78369;BMP280;71113;43.092;-89.268;2024-01-16T09:23:56;98257.50;;;18.40
78369;BMP280;71113;43.092;-89.268;2024-01-16T09:26:23;98249.72;;;18.43
78369;BMP280;71113;43.092;-89.268;2024-01-16T09:28:49;98254.22;;;18.43
78369;BMP280;71113;43.092;-89.268;2024-01-16T09:31:15;98241.81;;;18.43
78369;BMP280;71113;43.092;-89.268;2024-01-16T09:33:41;98241.81;;;18.43
78369;BMP280;71113;43.092;-89.268;2024-01-16T09:36:09;98241.81;;;18.43
78369;BMP280;71113;43.092;-89.268;2024-01-16T09:38:34;98243.84;;;18.38
78369;BMP280;71113;43.092;-89.268;2024-01-16T09:41:00;98227.22;;;18.37
78369;BMP280;71113;43.092;-89.268;2024-01-16T09:43:28;98218.50;;;18.45
78369;BMP280;71113;43.092;-89.268;2024-01-16T09:46:01;98225.59;;;18.53
78369;BMP280;71113;43.092;-89.268;2024-01-16T09:48:47;98218.31;;;18.59
78369;BMP280;71113;43.092;-89.268;2024-01-16T09:51:14;98211.03;;;18.56
78369;BMP280;71113;43.092;-89.268;2024-01-16T09:53:43;98210.84;;;18.52
78369;BMP280;71113;43.092;-89.268;2024-01-16T09:56:14;98215.84;;;18.45
78369;BMP280;71113;43.092;-89.268;2024-01-16T09:58:43;98224.22;;;18.39
78369;BMP280;71113;43.092;-89.268;2024-01-16T10:01:11;98217.13;;;18.39
78369;BMP280;71113;43.092;-89.268;2024-01-16T10:03:38;98211.38;;;18.37
78369;BMP280;71113;43.092;-89.268;2024-01-16T10:06:07;98200.19;;;18.40
78369;BMP280;71113;43.092;-89.268;2024-01-16T10:08:33;98198.63;;;18.39
78369;BMP280;71113;43.092;-89.268;2024-01-16T10:10:59;98195.19;;;18.39
78369;BMP280;71113;43.092;-89.268;2024-01-16T10:13:29;98194.75;;;18.37
78369;BMP280;71113;43.092;-89.268;2024-01-16T10:15:55;98192.28;;;18.32
78369;BMP280;71113;43.092;-89.268;2024-01-16T10:18:25;98187.25;;;18.39
78369;BMP280;71113;43.092;-89.268;2024-01-16T10:20:51;98186.81;;;18.45
78369;BMP280;71113;43.092;-89.268;2024-01-16T10:23:28;98176.84;;;18.51
78369;BMP280;71113;43.092;-89.268;2024-01-16T10:26:13;98187.25;;;18.56
78369;BMP280;71113;43.092;-89.268;2024-01-16T10:28:43;98190.94;;;18.64
78369;BMP280;71113;43.092;-89.268;2024-01-16T10:31:11;98180.81;;;18.66
78369;BMP280;71113;43.092;-89.268;2024-01-16T10:33:38;98187.06;;;18.61
78369;BMP280;71113;43.092;-89.268;2024-01-16T10:36:12;98177.16;;;18.49
78369;BMP280;71113;43.092;-89.268;2024-01-16T10:38:40;98186.34;;;18.43
78369;BMP280;71113;43.092;-89.268;2024-01-16T10:43:36;98185.88;;;18.41
78369;BMP280;71113;43.092;-89.268;2024-01-16T10:46:12;98193.34;;;18.39
78369;BMP280;71113;43.092;-89.268;2024-01-16T10:48:39;98196.75;;;18.40
78369;BMP280;71113;43.092;-89.268;2024-01-16T10:51:07;98185.56;;;18.34
78369;BMP280;71113;43.092;-89.268;2024-01-16T10:53:34;98183.56;;;18.40
78369;BMP280;71113;43.092;-89.268;2024-01-16T10:56:01;98178.88;;;18.45
78369;BMP280;71113;43.092;-89.268;2024-01-16T10:58:30;98175.75;;;18.52
78369;BMP280;71113;43.092;-89.268;2024-01-16T11:01:00;98182.09;;;18.60
78369;BMP280;71113;43.092;-89.268;2024-01-16T11:03:46;98178.50;;;18.64
78369;BMP280;71113;43.092;-89.268;2024-01-16T11:06:17;98170.53;;;18.73
78369;BMP280;71113;43.092;-89.268;2024-01-16T11:08:47;98163.09;;;18.75
78369;BMP280;71113;43.092;-89.268;2024-01-16T11:11:14;98156.50;;;18.81
78369;BMP280;71113;43.092;-89.268;2024-01-16T11:13:41;98149.38;;;18.81
78369;BMP280;71113;43.092;-89.268;2024-01-16T11:16:13;98154.00;;;18.84
78369;BMP280;71113;43.092;-89.268;2024-01-16T11:18:39;98151.63;;;18.92
78369;BMP280;71113;43.092;-89.268;2024-01-16T11:21:13;98158.59;;;18.96
78369;BMP280;71113;43.092;-89.268;2024-01-16T11:23:40;98160.31;;;19.01
78369;BMP280;71113;43.092;-89.268;2024-01-16T11:26:28;98164.16;;;19.03
78369;BMP280;71113;43.092;-89.268;2024-01-16T11:28:57;98166.59;;;19.08
78369;BMP280;71113;43.092;-89.268;2024-01-16T11:31:32;98164.13;;;19.12
78369;BMP280;71113;43.092;-89.268;2024-01-16T11:33:59;98159.94;;;19.11
78369;BMP280;71113;43.092;-89.268;2024-01-16T11:36:49;98164.69;;;19.17
78369;BMP280;71113;43.092;-89.268;2024-01-16T11:39:23;98155.19;;;19.25
78369;BMP280;71113;43.092;-89.268;2024-01-16T11:41:58;98148.44;;;19.28
78369;BMP280;71113;43.092;-89.268;2024-01-16T11:44:43;98144.97;;;19.36
78369;BMP280;71113;43.092;-89.268;2024-01-16T11:47:15;98144.78;;;19.41
78369;BMP280;71113;43.092;-89.268;2024-01-16T11:49:41;98145.22;;;19.43
78369;BMP280;71113;43.092;-89.268;2024-01-16T11:52:07;98143.81;;;19.45
78369;BMP280;71113;43.092;-89.268;2024-01-16T11:54:33;98144.72;;;19.49
78369;BMP280;71113;43.092;-89.268;2024-01-16T12:00:01;98136.47;;;19.30
78369;BMP280;71113;43.092;-89.268;2024-01-16T12:02:56;98126.50;;;19.27
78369;BMP280;71113;43.092;-89.268;2024-01-16T12:05:22;98138.78;;;19.32
78369;BMP280;71113;43.092;-89.268;2024-01-16T12:07:48;98129.34;;;19.43
78369;BMP280;71113;43.092;-89.268;2024-01-16T12:10:19;98126.06;;;19.46
78369;BMP280;71113;43.092;-89.268;2024-01-16T12:12:46;98136.47;;;19.51
78369;BMP280;71113;43.092;-89.268;2024-01-16T12:15:20;98137.25;;;19.52
78369;BMP280;71113;43.092;-89.268;2024-01-16T12:17:57;98129.84;;;19.57
78369;BMP280;71113;43.092;-89.268;2024-01-16T12:20:26;98134.16;;;19.62
78369;BMP280;71113;43.092;-89.268;2024-01-16T12:23:06;98137.28;;;19.64
78369;BMP280;71113;43.092;-89.268;2024-01-16T12:25:33;98136.75;;;19.70
78369;BMP280;71113;43.092;-89.268;2024-01-16T12:28:01;98150.09;;;19.74
78369;BMP280;71113;43.092;-89.268;2024-01-16T12:30:32;98138.09;;;19.76
78369;BMP280;71113;43.092;-89.268;2024-01-16T12:33:09;98135.56;;;19.80
78369;BMP280;71113;43.092;-89.268;2024-01-16T12:38:04;98137.03;;;19.90
78369;BMP280;71113;43.092;-89.268;2024-01-16T12:40:36;98146.50;;;19.78
78369;BMP280;71113;43.092;-89.268;2024-01-16T12:43:03;98160.56;;;19.70
78369;BMP280;71113;43.092;-89.268;2024-01-16T12:45:30;98155.94;;;19.67
78369;BMP280;71113;43.092;-89.268;2024-01-16T12:47:57;98157.47;;;19.68
78369;BMP280;71113;43.092;-89.268;2024-01-16T12:50:27;98155.69;;;19.60
78369;BMP280;71113;43.092;-89.268;2024-01-16T12:53:05;98154.13;;;19.59
78369;BMP280;71113;43.092;-89.268;2024-01-16T12:55:33;98156.00;;;19.59
78369;BMP280;71113;43.092;-89.268;2024-01-16T12:58:20;98157.09;;;19.58
78369;BMP280;71113;43.092;-89.268;2024-01-16T13:00:49;98155.41;;;19.53
78369;BMP280;71113;43.092;-89.268;2024-01-16T13:03:20;98151.53;;;19.50
78369;BMP280;71113;43.092;-89.268;2024-01-16T13:05:54;98150.66;;;19.46
78369;BMP280;71113;43.092;-89.268;2024-01-16T13:08:21;98142.13;;;19.41
78369;BMP280;71113;43.092;-89.268;2024-01-16T13:11:05;98133.75;;;19.39
78369;BMP280;71113;43.092;-89.268;2024-01-16T13:13:31;98143.41;;;19.35
78369;BMP280;71113;43.092;-89.268;2024-01-16T13:15:59;98141.00;;;19.30
78369;BMP280;71113;43.092;-89.268;2024-01-16T13:18:29;98137.09;;;19.27
78369;BMP280;71113;43.092;-89.268;2024-01-16T13:20:59;98133.69;;;19.27
78369;BMP280;71113;43.092;-89.268;2024-01-16T13:23:26;98135.91;;;19.25
78369;BMP280;71113;43.092;-89.268;2024-01-16T13:25:53;98127.47;;;19.23
78369;BMP280;71113;43.092;-89.268;2024-01-16T13:28:21;98128.13;;;19.19
78369;BMP280;71113;43.092;-89.268;2024-01-16T13:30:48;98127.56;;;19.14
78369;BMP280;71113;43.092;-89.268;2024-01-16T13:33:15;98123.69;;;19.11
78369;BMP280;71113;43.092;-89.268;2024-01-16T13:35:45;98116.53;;;19.12
78369;BMP280;71113;43.092;-89.268;2024-01-16T13:38:15;98118.47;;;19.03
78369;BMP280;71113;43.092;-89.268;2024-01-16T13:40:44;98122.78;;;19.07
78369;BMP280;71113;43.092;-89.268;2024-01-16T13:43:10;98132.91;;;19.05
78369;BMP280;71113;43.092;-89.268;2024-01-16T13:45:40;98132.66;;;18.98
78369;BMP280;71113;43.092;-89.268;2024-01-16T13:48:07;98137.16;;;18.98
78369;BMP280;71113;43.092;-89.268;2024-01-16T13:50:34;98124.91;;;18.93
78369;BMP280;71113;43.092;-89.268;2024-01-16T13:53:00;98132.03;;;18.93
78369;BMP280;71113;43.092;-89.268;2024-01-16T13:55:27;98133.78;;;18.88